Time;durP1;ratioP1;P1;durP2;ratioP2;P2;SDS_P1;SDS_P2;PMS_P1;PMS_P2;Temp;Humidity;BMP_temperature;BMP_pressure;BME280_temperature;BME280_humidity;BME280_pressure;Samples;Min_cycle;Max_cycle;Signal;HPM_P1;HPM_P2
2022/12/26 00:01:18;;;;;;;26.23;13.07;;;;;;;;;;5167044;27;20046;-72
2022/12/26 00:03:45;;;;;;;26.15;12.73;;;;;;;;;;5165677;27;20626;-74
2022/12/26 00:06:12;;;;;;;23.27;12.50;;;;;;;;;;5166759;27;20078;-71
2022/12/26 00:08:38;;;;;;;27.80;13.00;;;;;;;;;;5166345;27;20051;-73
2022/12/26 00:11:05;;;;;;;30.35;13.30;;;;;;;;;;5167721;27;20051;-71
2022/12/26 00:13:31;;;;;;;24.27;13.05;;;;;;;;;;5165170;27;20570;-71
2022/12/26 00:16:14;;;;;;;29.05;13.88;;;;;;;;;;5167094;27;20046;-73
2022/12/26 00:18:40;;;;;;;30.30;13.35;;;;;;;;;;5167779;27;20104;-73
2022/12/26 00:21:08;;;;;;;33.00;14.40;;;;;;;;;;5165514;27;20046;-73
2022/12/26 00:23:35;;;;;;;31.10;14.68;;;;;;;;;;5164002;27;20062;-73
2022/12/26 00:26:02;;;;;;;28.90;13.25;;;;;;;;;;5161273;27;20489;-72
2022/12/26 00:28:29;;;;;;;29.48;14.30;;;;;;;;;;5166600;27;20069;-72
2022/12/26 00:30:55;;;;;;;27.45;13.18;;;;;;;;;;5164416;27;20127;-73
2022/12/26 00:33:22;;;;;;;27.92;14.13;;;;;;;;;;5165295;27;20063;-73
2022/12/26 00:35:48;;;;;;;29.45;14.73;;;;;;;;;;5164977;27;20042;-72
2022/12/26 00:38:15;;;;;;;26.38;14.38;;;;;;;;;;5165828;27;20133;-73
2022/12/26 00:40:43;;;;;;;30.27;14.93;;;;;;;;;;5166599;27;20070;-70
2022/12/26 00:43:10;;;;;;;29.10;15.07;;;;;;;;;;5165477;27;20054;-73
2022/12/26 00:45:36;;;;;;;29.40;15.30;;;;;;;;;;5162785;27;20559;-73
2022/12/26 00:48:03;;;;;;;32.58;17.08;;;;;;;;;;5165923;27;20604;-73
2022/12/26 00:50:29;;;;;;;32.55;16.02;;;;;;;;;;5165934;27;20047;-72
2022/12/26 00:53:00;;;;;;;34.22;16.38;;;;;;;;;;5165012;27;20054;-71
2022/12/26 00:55:26;;;;;;;32.33;16.42;;;;;;;;;;5162828;27;20080;-74
2022/12/26 00:57:52;;;;;;;37.47;16.10;;;;;;;;;;5164375;27;20533;-72
2022/12/26 01:00:19;;;;;;;36.17;16.23;;;;;;;;;;5165625;27;20606;-73
2022/12/26 01:02:45;;;;;;;36.30;15.55;;;;;;;;;;5165045;27;20424;-72
2022/12/26 01:05:12;;;;;;;28.95;13.73;;;;;;;;;;5160617;27;20043;-71
2022/12/26 01:07:39;;;;;;;33.35;13.43;;;;;;;;;;5166273;27;20514;-73
2022/12/26 01:10:26;;;;;;;28.85;12.75;;;;;;;;;;5164794;27;20051;-73
2022/12/26 01:12:52;;;;;;;23.65;12.38;;;;;;;;;;5165325;27;20043;-70
2022/12/26 01:15:20;;;;;;;24.40;12.93;;;;;;;;;;5164239;27;20059;-72
2022/12/26 01:17:46;;;;;;;28.35;12.65;;;;;;;;;;5163880;27;20054;-73
2022/12/26 01:20:12;;;;;;;26.02;12.68;;;;;;;;;;5164522;27;20077;-72
2022/12/26 01:22:39;;;;;;;27.17;13.40;;;;;;;;;;5163727;27;20053;-74
2022/12/26 01:25:05;;;;;;;27.80;13.48;;;;;;;;;;5163273;27;20129;-71
2022/12/26 01:27:32;;;;;;;28.45;14.20;;;;;;;;;;5163459;27;20046;-73
2022/12/26 01:29:58;;;;;;;26.15;13.73;;;;;;;;;;5166004;27;20062;-72
2022/12/26 01:32:24;;;;;;;29.77;14.02;;;;;;;;;;5165327;27;20413;-74
2022/12/26 01:34:54;;;;;;;28.77;13.25;;;;;;;;;;5165177;27;20053;-74
2022/12/26 01:37:22;;;;;;;31.40;14.50;;;;;;;;;;5165746;27;20082;-71
2022/12/26 01:39:48;;;;;;;33.90;15.80;;;;;;;;;;5165975;27;20043;-72
2022/12/26 01:42:16;;;;;;;27.92;14.63;;;;;;;;;;5163111;27;20042;-72
2022/12/26 01:45:01;;;;;;;36.65;16.40;;;;;;;;;;5164234;27;20520;-72
2022/12/26 01:47:39;;;;;;;30.90;15.55;;;;;;;;;;5165046;27;20061;-73
2022/12/26 01:50:11;;;;;;;30.65;15.52;;;;;;;;;;5163310;27;20046;-71
2022/12/26 01:52:39;;;;;;;26.75;14.45;;;;;;;;;;5165556;27;20042;-73
2022/12/26 01:55:07;;;;;;;32.15;15.98;;;;;;;;;;5162674;27;20792;-72
2022/12/26 01:57:36;;;;;;;33.03;15.82;;;;;;;;;;5163604;27;20050;-74
2022/12/26 02:00:03;;;;;;;33.90;15.77;;;;;;;;;;5164108;27;20153;-71
2022/12/26 02:05:32;;;;;;;35.75;17.67;;;;;;;;;;5164880;27;20047;-73
2022/12/26 02:05:35;;;;;;;39.45;18.38;;;;;;;;;;5164750;27;20047;-72
2022/12/26 02:08:03;;;;;;;43.77;19.67;;;;;;;;;;5151028;27;20078;-72
2022/12/26 02:10:31;;;;;;;37.58;17.38;;;;;;;;;;5164569;27;20501;-73
2022/12/26 02:12:58;;;;;;;36.40;17.55;;;;;;;;;;5163682;27;20404;-72
2022/12/26 02:15:24;;;;;;;38.60;19.45;;;;;;;;;;5162399;27;20137;-73
2022/12/26 02:17:50;;;;;;;40.72;21.10;;;;;;;;;;5163374;27;21001;-72
2022/12/26 02:20:17;;;;;;;38.03;19.00;;;;;;;;;;5165065;27;20081;-72
2022/12/26 02:23:02;;;;;;;39.60;20.95;;;;;;;;;;5163499;27;20046;-72
2022/12/26 02:25:37;;;;;;;36.47;18.80;;;;;;;;;;5162814;27;20543;-72
2022/12/26 02:28:16;;;;;;;37.13;18.85;;;;;;;;;;5164399;27;20055;-73
2022/12/26 02:30:42;;;;;;;32.83;17.83;;;;;;;;;;5164913;27;20047;-72
2022/12/26 02:33:11;;;;;;;35.85;17.58;;;;;;;;;;5162271;27;20055;-71
2022/12/26 02:35:44;;;;;;;35.83;18.88;;;;;;;;;;5163732;27;20051;-72
2022/12/26 02:38:32;;;;;;;33.25;18.30;;;;;;;;;;5163636;27;20133;-72
2022/12/26 02:41:01;;;;;;;31.63;16.50;;;;;;;;;;5163663;27;20047;-71
2022/12/26 02:43:33;;;;;;;31.33;17.92;;;;;;;;;;5161589;27;20039;-73
2022/12/26 02:48:51;;;;;;;30.48;17.60;;;;;;;;;;5163392;27;20047;-71
2022/12/26 03:13:09;;;;;;;29.88;17.88;;;;;;;;;;5077705;28;20519;-72
2022/12/26 03:14:21;;;;;;;29.42;17.17;;;;;;;;;;5079231;28;20062;-72
2022/12/26 03:19:36;;;;;;;27.88;16.95;;;;;;;;;;5078680;28;20060;-71
2022/12/26 03:22:29;;;;;;;29.00;17.13;;;;;;;;;;5073206;28;20053;-72
2022/12/26 03:27:36;;;;;;;30.98;17.70;;;;;;;;;;5082529;28;20053;-72
2022/12/26 03:32:48;;;;;;;24.87;15.53;;;;;;;;;;5165787;27;20135;-71
2022/12/26 03:35:14;;;;;;;26.15;15.45;;;;;;;;;;5164498;27;20265;-72
2022/12/26 03:37:47;;;;;;;29.42;17.27;;;;;;;;;;5146646;27;20634;-70
2022/12/26 04:20:09;;;;;;;26.20;15.40;;;;;;;;;;5165795;27;20479;-71
2022/12/26 04:45:25;;;;;;;21.33;13.85;;;;;;;;;;5066839;28;20052;-70
2022/12/26 04:50:47;;;;;;;21.23;12.93;;;;;;;;;;5080313;28;20053;-70
2022/12/26 04:53:13;;;;;;;18.13;12.15;;;;;;;;;;5079214;28;20063;-71
2022/12/26 04:55:40;;;;;;;21.00;13.52;;;;;;;;;;5079923;28;20215;-71
2022/12/26 04:58:06;;;;;;;20.27;12.45;;;;;;;;;;5080867;28;20059;-70
2022/12/26 05:00:32;;;;;;;17.38;12.57;;;;;;;;;;5080555;28;20051;-71
2022/12/26 05:11:15;;;;;;;19.80;13.18;;;;;;;;;;5163558;27;44170;-71
2022/12/26 05:13:42;;;;;;;20.92;14.07;;;;;;;;;;5164368;27;20058;-70
2022/12/26 05:29:59;;;;;;;22.35;15.13;;;;;;;;;;5165103;27;20043;-71
2022/12/26 05:35:10;;;;;;;23.13;13.30;;;;;;;;;;5165262;27;20046;-69
2022/12/26 05:37:37;;;;;;;22.00;15.13;;;;;;;;;;5165402;27;20039;-69
2022/12/26 05:40:03;;;;;;;23.98;14.85;;;;;;;;;;5151970;27;20050;-70
2022/12/26 05:42:30;;;;;;;23.05;14.77;;;;;;;;;;5163090;27;20042;-70
2022/12/26 05:44:56;;;;;;;25.70;13.70;;;;;;;;;;5164761;27;20054;-71
2022/12/26 05:47:22;;;;;;;22.80;13.40;;;;;;;;;;5164590;27;20447;-70
2022/12/26 05:49:49;;;;;;;23.60;14.43;;;;;;;;;;5162501;27;20050;-70
2022/12/26 05:52:15;;;;;;;22.05;14.07;;;;;;;;;;5163422;27;20586;-70
2022/12/26 05:54:41;;;;;;;20.30;13.80;;;;;;;;;;5164497;27;20051;-71
2022/12/26 05:57:08;;;;;;;20.65;12.85;;;;;;;;;;5163864;27;20049;-70
2022/12/26 05:59:34;;;;;;;21.80;13.10;;;;;;;;;;5165322;27;20055;-71
2022/12/26 06:02:00;;;;;;;20.08;12.88;;;;;;;;;;5162443;27;20166;-71
2022/12/26 06:04:28;;;;;;;21.17;13.20;;;;;;;;;;5164049;27;20043;-71
2022/12/26 06:06:55;;;;;;;16.65;10.85;;;;;;;;;;5163413;27;20054;-71
2022/12/26 06:09:22;;;;;;;18.58;10.93;;;;;;;;;;5163913;27;20520;-70
2022/12/26 06:11:48;;;;;;;16.73;9.48;;;;;;;;;;5164317;27;20504;-73
2022/12/26 06:14:15;;;;;;;16.95;10.15;;;;;;;;;;5165395;27;20054;-72
2022/12/26 06:16:41;;;;;;;17.77;10.48;;;;;;;;;;5163905;27;20462;-72
2022/12/26 06:19:08;;;;;;;15.13;9.55;;;;;;;;;;5164793;27;20067;-72
2022/12/26 06:21:34;;;;;;;16.23;10.50;;;;;;;;;;5161885;27;20043;-72
2022/12/26 06:24:00;;;;;;;13.57;9.20;;;;;;;;;;5164458;27;20086;-72
2022/12/26 06:26:27;;;;;;;12.85;9.27;;;;;;;;;;5164312;27;20439;-74
2022/12/26 06:28:53;;;;;;;19.65;8.70;;;;;;;;;;5160641;27;20505;-73
2022/12/26 06:31:21;;;;;;;15.15;9.60;;;;;;;;;;5164394;27;20058;-70
2022/12/26 06:33:49;;;;;;;12.93;9.65;;;;;;;;;;5132963;27;20139;-71
2022/12/26 06:36:17;;;;;;;15.75;9.80;;;;;;;;;;5158006;27;20104;-72
2022/12/26 06:38:43;;;;;;;13.82;9.27;;;;;;;;;;5164849;27;20480;-70
2022/12/26 06:41:11;;;;;;;12.98;8.57;;;;;;;;;;5165133;27;20479;-71
2022/12/26 06:43:38;;;;;;;12.55;8.75;;;;;;;;;;5158921;27;20058;-71
2022/12/26 06:46:05;;;;;;;10.82;7.78;;;;;;;;;;5160772;27;20153;-70
2022/12/26 06:48:32;;;;;;;11.30;8.07;;;;;;;;;;5162959;27;20047;-70
2022/12/26 06:51:03;;;;;;;11.00;7.85;;;;;;;;;;5157264;27;20051;-71
2022/12/26 06:53:29;;;;;;;10.75;7.10;;;;;;;;;;5164869;27;20077;-71
2022/12/26 06:56:04;;;;;;;12.60;7.50;;;;;;;;;;5154853;27;20047;-70
2022/12/26 06:58:30;;;;;;;11.55;7.50;;;;;;;;;;5145801;27;20059;-70
2022/12/26 07:01:02;;;;;;;12.18;7.00;;;;;;;;;;5160923;27;20050;-70
2022/12/26 07:03:29;;;;;;;12.45;7.53;;;;;;;;;;5168575;27;20043;-71
2022/12/26 07:05:55;;;;;;;10.02;6.85;;;;;;;;;;5168635;27;20051;-70
2022/12/26 07:08:21;;;;;;;10.95;6.68;;;;;;;;;;5163637;27;20051;-72
2022/12/26 07:10:48;;;;;;;10.10;7.15;;;;;;;;;;5162926;27;20146;-72
2022/12/26 07:13:14;;;;;;;11.45;5.88;;;;;;;;;;5168013;27;20043;-70
2022/12/26 07:15:41;;;;;;;10.18;6.38;;;;;;;;;;5165503;27;20088;-72
2022/12/26 07:18:07;;;;;;;8.00;6.25;;;;;;;;;;5148018;27;20129;-71
2022/12/26 07:20:34;;;;;;;10.15;6.32;;;;;;;;;;5167630;27;20057;-71
2022/12/26 07:23:00;;;;;;;10.40;6.55;;;;;;;;;;5167082;27;20068;-71
2022/12/26 07:25:26;;;;;;;8.25;6.38;;;;;;;;;;5167059;27;20054;-71
2022/12/26 07:27:53;;;;;;;8.50;6.05;;;;;;;;;;5166887;27;20400;-72
2022/12/26 07:30:19;;;;;;;11.27;5.72;;;;;;;;;;5164364;27;20099;-71
2022/12/26 07:32:46;;;;;;;9.45;5.28;;;;;;;;;;5166917;27;20054;-71
2022/12/26 07:35:12;;;;;;;10.07;5.70;;;;;;;;;;5167283;27;20107;-70
2022/12/26 07:37:39;;;;;;;12.23;6.13;;;;;;;;;;5153139;27;20054;-70
2022/12/26 07:40:06;;;;;;;10.68;4.95;;;;;;;;;;5167813;27;20046;-72
2022/12/26 07:42:33;;;;;;;8.13;5.18;;;;;;;;;;5164451;27;20090;-73
2022/12/26 07:44:59;;;;;;;13.15;5.35;;;;;;;;;;5154733;27;20513;-71
2022/12/26 07:47:26;;;;;;;8.60;4.60;;;;;;;;;;5147090;27;20138;-70
2022/12/26 07:49:52;;;;;;;8.60;5.28;;;;;;;;;;5165289;27;20043;-72
2022/12/26 07:52:18;;;;;;;6.18;4.80;;;;;;;;;;5164644;27;20053;-73
2022/12/26 07:54:45;;;;;;;9.15;4.90;;;;;;;;;;5164753;27;20870;-71
2022/12/26 07:57:11;;;;;;;10.00;5.20;;;;;;;;;;5154634;27;20158;-72
2022/12/26 07:59:58;;;;;;;7.43;4.47;;;;;;;;;;5159491;27;20047;-72
2022/12/26 08:02:24;;;;;;;7.10;4.88;;;;;;;;;;5158097;27;20046;-72
2022/12/26 08:04:51;;;;;;;6.95;4.25;;;;;;;;;;5162312;27;20054;-73
2022/12/26 08:07:17;;;;;;;9.48;4.90;;;;;;;;;;5147080;27;20053;-71
2022/12/26 08:09:44;;;;;;;6.43;4.28;;;;;;;;;;5157752;27;20051;-72
2022/12/26 08:12:11;;;;;;;9.77;4.20;;;;;;;;;;5157395;27;20047;-72
2022/12/26 08:14:38;;;;;;;12.55;4.47;;;;;;;;;;5155475;27;20172;-72
2022/12/26 08:17:05;;;;;;;5.72;3.92;;;;;;;;;;5152501;27;20905;-71
2022/12/26 08:19:31;;;;;;;5.65;3.35;;;;;;;;;;5156222;27;20527;-71
2022/12/26 08:21:58;;;;;;;7.78;3.42;;;;;;;;;;5163219;27;20180;-70
2022/12/26 08:24:24;;;;;;;7.13;3.40;;;;;;;;;;5164823;27;20630;-71
2022/12/26 08:26:50;;;;;;;5.30;3.38;;;;;;;;;;5164533;27;20046;-71
2022/12/26 08:29:17;;;;;;;11.32;3.75;;;;;;;;;;5167424;27;20090;-71
2022/12/26 08:31:43;;;;;;;6.07;3.25;;;;;;;;;;5164293;27;20070;-73
2022/12/26 08:34:10;;;;;;;6.97;3.45;;;;;;;;;;5167331;27;20047;-74
2022/12/26 08:36:37;;;;;;;12.70;3.53;;;;;;;;;;5168359;27;20050;-73
2022/12/26 08:39:03;;;;;;;5.88;3.30;;;;;;;;;;5150730;27;20050;-72
2022/12/26 08:41:30;;;;;;;5.57;3.20;;;;;;;;;;5166260;27;20150;-72
2022/12/26 08:43:56;;;;;;;6.50;3.33;;;;;;;;;;5166247;27;20460;-72
2022/12/26 08:46:43;;;;;;;9.70;3.17;;;;;;;;;;5146272;27;20096;-72
2022/12/26 08:49:10;;;;;;;5.65;3.40;;;;;;;;;;5158766;27;20063;-74
2022/12/26 08:51:36;;;;;;;5.60;3.53;;;;;;;;;;5166552;27;20192;-72
2022/12/26 08:54:03;;;;;;;10.40;3.45;;;;;;;;;;5163760;27;20090;-71
2022/12/26 08:56:30;;;;;;;13.40;3.95;;;;;;;;;;5161980;27;20043;-72
2022/12/26 08:58:56;;;;;;;6.65;3.75;;;;;;;;;;5164521;27;20062;-73
2022/12/26 09:01:24;;;;;;;8.43;3.90;;;;;;;;;;5145102;27;20053;-72
2022/12/26 09:03:55;;;;;;;7.55;4.20;;;;;;;;;;5159487;27;20077;-74
2022/12/26 09:06:21;;;;;;;7.78;3.97;;;;;;;;;;5157493;27;20134;-75
2022/12/26 09:08:48;;;;;;;10.13;3.53;;;;;;;;;;5158092;27;20509;-73
2022/12/26 09:11:19;;;;;;;8.15;3.60;;;;;;;;;;5155291;27;20178;-72
2022/12/26 09:13:46;;;;;;;10.30;3.50;;;;;;;;;;5154908;27;20557;-73
2022/12/26 09:16:12;;;;;;;9.43;2.88;;;;;;;;;;5160033;27;20054;-73
2022/12/26 09:18:39;;;;;;;11.90;3.65;;;;;;;;;;5151056;27;20112;-73
2022/12/26 09:21:07;;;;;;;7.95;2.40;;;;;;;;;;5157957;27;20505;-73
2022/12/26 09:23:34;;;;;;;5.90;2.08;;;;;;;;;;5149574;27;20521;-74
2022/12/26 09:26:04;;;;;;;7.70;2.28;;;;;;;;;;5160961;27;20051;-73
2022/12/26 09:28:31;;;;;;;2.88;2.05;;;;;;;;;;5158228;27;20104;-73
2022/12/26 09:31:01;;;;;;;5.80;1.80;;;;;;;;;;5161319;27;20057;-72
2022/12/26 09:33:28;;;;;;;7.97;2.00;;;;;;;;;;5165114;27;20422;-71
2022/12/26 09:35:55;;;;;;;7.55;2.25;;;;;;;;;;5165257;27;20166;-71
2022/12/26 09:38:29;;;;;;;8.95;2.22;;;;;;;;;;5164120;27;20042;-71
2022/12/26 09:41:07;;;;;;;3.33;1.85;;;;;;;;;;5164296;27;20039;-72
2022/12/26 09:43:42;;;;;;;3.75;1.73;;;;;;;;;;5157449;27;20047;-71
2022/12/26 09:46:18;;;;;;;9.13;2.03;;;;;;;;;;5161397;27;20054;-71
2022/12/26 09:48:47;;;;;;;6.57;1.85;;;;;;;;;;5158728;27;20039;-69
2022/12/26 09:51:13;;;;;;;14.65;3.00;;;;;;;;;;5158018;27;20058;-70
2022/12/26 09:53:42;;;;;;;12.25;2.38;;;;;;;;;;5163716;27;20589;-70
2022/12/26 09:56:16;;;;;;;14.90;2.70;;;;;;;;;;5163074;27;20077;-71
2022/12/26 09:59:14;;;;;;;14.90;1.90;;;;;;;;;;5166318;27;20061;-71
2022/12/26 10:01:42;;;;;;;11.05;1.58;;;;;;;;;;5163584;27;20047;-72
2022/12/26 10:04:23;;;;;;;22.55;2.53;;;;;;;;;;5162863;27;20053;-71
2022/12/26 10:07:24;;;;;;;9.07;1.98;;;;;;;;;;5164992;27;20061;-71
2022/12/26 10:09:54;;;;;;;12.60;2.17;;;;;;;;;;5139202;27;20039;-71
2022/12/26 10:12:33;;;;;;;9.75;2.00;;;;;;;;;;5148353;27;20051;-71
2022/12/26 10:15:05;;;;;;;11.05;2.60;;;;;;;;;;5162624;27;20068;-71
2022/12/26 10:17:45;;;;;;;10.50;1.67;;;;;;;;;;5165912;27;20071;-70
2022/12/26 10:20:20;;;;;;;6.50;2.08;;;;;;;;;;5164446;27;20425;-72
2022/12/26 10:22:47;;;;;;;10.80;2.35;;;;;;;;;;5162325;27;20474;-70
2022/12/26 10:25:16;;;;;;;7.68;2.15;;;;;;;;;;5164839;27;20494;-71
2022/12/26 10:27:44;;;;;;;4.15;1.33;;;;;;;;;;5133157;27;20058;-72
2022/12/26 10:30:17;;;;;;;10.35;2.10;;;;;;;;;;5163112;27;20638;-70
2022/12/26 10:32:47;;;;;;;9.45;2.22;;;;;;;;;;5165727;27;20119;-72
2022/12/26 10:35:28;;;;;;;12.32;2.17;;;;;;;;;;5169020;27;20075;-69
2022/12/26 10:37:57;;;;;;;16.98;2.22;;;;;;;;;;5165256;27;20100;-71
2022/12/26 10:40:25;;;;;;;7.72;1.58;;;;;;;;;;5156535;27;20054;-71
2022/12/26 10:42:52;;;;;;;9.98;2.08;;;;;;;;;;5169273;27;20045;-71
2022/12/26 10:45:23;;;;;;;7.50;1.77;;;;;;;;;;5167079;27;20055;-71
2022/12/26 10:47:50;;;;;;;9.45;3.13;;;;;;;;;;5168213;27;20057;-71
2022/12/26 10:50:18;;;;;;;10.32;3.88;;;;;;;;;;5168405;27;20053;-71
2022/12/26 10:52:52;;;;;;;;;;;;;;;;;;5166694;27;20046;-71
2022/12/26 10:55:18;;;;;;;;;;;;;;;;;;5165935;27;46856;-71
2022/12/26 10:57:55;;;;;;;;;;;;;;;;;;5168125;27;46009;-71
2022/12/26 11:00:23;;;;;;;4.40;1.55;;;;;;;;;;5168355;27;42857;-71
2022/12/26 11:03:04;;;;;;;6.30;1.33;;;;;;;;;;5161400;27;20042;-70
2022/12/26 11:05:32;;;;;;;5.03;1.40;;;;;;;;;;5149012;27;20984;-71
2022/12/26 11:08:25;;;;;;;5.40;1.23;;;;;;;;;;5166032;27;20173;-71
2022/12/26 11:11:04;;;;;;;4.80;1.75;;;;;;;;;;5164391;27;20047;-71
2022/12/26 11:13:32;;;;;;;6.35;1.60;;;;;;;;;;5167624;27;20393;-71
2022/12/26 11:15:58;;;;;;;4.75;1.60;;;;;;;;;;5167916;27;20043;-70
2022/12/26 11:18:33;;;;;;;7.18;1.77;;;;;;;;;;5167867;27;20050;-73
2022/12/26 11:21:18;;;;;;;9.80;1.70;;;;;;;;;;5159810;27;20619;-72
2022/12/26 11:23:45;;;;;;;3.88;1.38;;;;;;;;;;5147163;27;20043;-71
2022/12/26 11:26:22;;;;;;;7.82;2.25;;;;;;;;;;5162616;27;20047;-71
2022/12/26 11:29:04;;;;;;;12.77;3.92;;;;;;;;;;5168480;27;20039;-74
2022/12/26 11:31:31;;;;;;;7.30;1.42;;;;;;;;;;5163663;27;20546;-74
2022/12/26 11:34:00;;;;;;;13.55;3.90;;;;;;;;;;5166032;27;20051;-73
2022/12/26 11:36:27;;;;;;;7.07;2.13;;;;;;;;;;5165242;27;20133;-72
2022/12/26 11:38:53;;;;;;;3.88;2.08;;;;;;;;;;5153766;27;20526;-73
2022/12/26 11:41:32;;;;;;;8.48;1.90;;;;;;;;;;5158057;27;20035;-73
2022/12/26 11:44:08;;;;;;;6.20;1.88;;;;;;;;;;5149317;27;20073;-74
2022/12/26 11:46:40;;;;;;;9.00;2.75;;;;;;;;;;5158130;27;20047;-72
2022/12/26 11:49:14;;;;;;;5.13;1.70;;;;;;;;;;5166979;27;20567;-72
2022/12/26 11:51:44;;;;;;;10.68;4.68;;;;;;;;;;5167783;27;20058;-70
2022/12/26 11:54:21;;;;;;;8.95;3.28;;;;;;;;;;5167359;27;20062;-71
2022/12/26 11:56:48;;;;;;;22.02;2.92;;;;;;;;;;5163973;27;20050;-71
2022/12/26 11:59:19;;;;;;;4.78;1.95;;;;;;;;;;5166864;27;20055;-72
2022/12/26 12:01:45;;;;;;;8.65;3.33;;;;;;;;;;5162217;27;20047;-72
2022/12/26 12:04:13;;;;;;;4.32;1.30;;;;;;;;;;5155783;27;20051;-71
2022/12/26 12:06:48;;;;;;;4.75;2.60;;;;;;;;;;5165938;27;20134;-71
2022/12/26 12:09:18;;;;;;;10.07;2.13;;;;;;;;;;5125337;27;20059;-74
2022/12/26 12:11:50;;;;;;;4.20;2.80;;;;;;;;;;5158105;27;20058;-73
2022/12/26 12:14:27;;;;;;;8.88;2.67;;;;;;;;;;5163646;27;20057;-72
2022/12/26 12:17:12;;;;;;;4.10;2.85;;;;;;;;;;5161015;27;20505;-72
2022/12/26 12:20:10;;;;;;;12.65;3.83;;;;;;;;;;5139127;27;20151;-71
2022/12/26 12:22:48;;;;;;;4.05;1.30;;;;;;;;;;5111102;27;20043;-71
2022/12/26 12:25:34;;;;;;;4.97;1.25;;;;;;;;;;5143401;27;20055;-71
2022/12/26 12:28:36;;;;;;;3.78;1.00;;;;;;;;;;5139436;27;20357;-72
2022/12/26 12:31:09;;;;;;;7.35;2.72;;;;;;;;;;5058438;28;20164;-70
2022/12/26 12:33:50;;;;;;;13.07;1.30;;;;;;;;;;5051421;28;20057;-72
2022/12/26 12:36:24;;;;;;;9.80;3.42;;;;;;;;;;5047936;28;20092;-70
2022/12/26 12:39:09;;;;;;;7.88;2.03;;;;;;;;;;5055990;28;20049;-71
2022/12/26 12:41:55;;;;;;;5.28;1.38;;;;;;;;;;5049172;28;20053;-70
2022/12/26 12:44:29;;;;;;;3.50;1.80;;;;;;;;;;5054884;28;20045;-71
2022/12/26 12:47:13;;;;;;;10.57;1.80;;;;;;;;;;5056882;28;20057;-70
2022/12/26 12:49:51;;;;;;;4.93;1.00;;;;;;;;;;5059042;28;20133;-70
2022/12/26 12:52:26;;;;;;;9.07;2.38;;;;;;;;;;5036698;28;20049;-70
2022/12/26 12:55:25;;;;;;;5.72;0.80;;;;;;;;;;5045704;28;20049;-70
2022/12/26 12:57:54;;;;;;;2.83;0.65;;;;;;;;;;5047250;28;20053;-70
2022/12/26 13:00:22;;;;;;;9.27;1.35;;;;;;;;;;5059401;28;20045;-70
2022/12/26 13:03:04;;;;;;;4.15;0.93;;;;;;;;;;5056677;28;20045;-70
2022/12/26 13:05:39;;;;;;;3.40;0.77;;;;;;;;;;5113475;27;20138;-69
2022/12/26 13:08:13;;;;;;;1.85;0.75;;;;;;;;;;5143526;27;20047;-69
2022/12/26 13:10:45;;;;;;;5.38;1.67;;;;;;;;;;5142027;27;20586;-70
2022/12/26 13:13:18;;;;;;;1.52;0.38;;;;;;;;;;5144481;27;20047;-70
2022/12/26 13:15:47;;;;;;;10.02;1.38;;;;;;;;;;5131009;27;20051;-70
2022/12/26 13:18:24;;;;;;;6.10;0.80;;;;;;;;;;5141846;27;20058;-71
2022/12/26 13:20:59;;;;;;;4.82;1.05;;;;;;;;;;5144690;27;20047;-73
2022/12/26 13:26:39;;;;;;;3.78;1.00;;;;;;;;;;5155486;27;20058;-70
2022/12/26 13:29:11;;;;;;;3.50;1.08;;;;;;;;;;5162948;27;20055;-72
2022/12/26 13:31:37;;;;;;;3.35;0.75;;;;;;;;;;5142848;27;20055;-71
2022/12/26 13:34:10;;;;;;;2.08;0.90;;;;;;;;;;5156613;27;20061;-70
2022/12/26 13:36:39;;;;;;;6.45;1.13;;;;;;;;;;5163555;27;20141;-69
2022/12/26 13:39:24;;;;;;;3.75;0.82;;;;;;;;;;5163980;27;20081;-71
2022/12/26 13:44:36;;;;;;;3.38;0.90;;;;;;;;;;5165628;27;20051;-72
2022/12/26 13:47:03;;;;;;;4.10;0.88;;;;;;;;;;5148214;27;20053;-72
2022/12/26 13:49:35;;;;;;;8.98;1.13;;;;;;;;;;5156004;27;20552;-70
2022/12/26 13:52:07;;;;;;;10.50;1.02;;;;;;;;;;5164433;27;20046;-70
2022/12/26 13:54:34;;;;;;;3.67;1.05;;;;;;;;;;5165631;27;20133;-69
2022/12/26 13:57:03;;;;;;;4.18;1.75;;;;;;;;;;5131437;27;20055;-69
2022/12/26 13:59:32;;;;;;;9.98;1.20;;;;;;;;;;5157343;27;20043;-69
2022/12/26 14:02:17;;;;;;;7.63;1.75;;;;;;;;;;5151628;27;20055;-70
2022/12/26 14:04:51;;;;;;;5.15;1.20;;;;;;;;;;5150746;27;20051;-71
2022/12/26 14:07:17;;;;;;;5.22;1.60;;;;;;;;;;5165116;27;20058;-71
2022/12/26 14:09:51;;;;;;;7.97;1.30;;;;;;;;;;5161122;27;20054;-70
2022/12/26 14:12:37;;;;;;;5.80;1.42;;;;;;;;;;5153085;27;20073;-70
2022/12/26 14:15:19;;;;;;;6.40;1.45;;;;;;;;;;5161888;27;20061;-69
2022/12/26 14:17:51;;;;;;;8.70;1.30;;;;;;;;;;5157565;27;20051;-70
2022/12/26 14:20:17;;;;;;;12.70;1.40;;;;;;;;;;5160596;27;20051;-70
2022/12/26 14:22:59;;;;;;;7.07;1.73;;;;;;;;;;5125911;27;20047;-69
2022/12/26 14:25:28;;;;;;;3.90;1.05;;;;;;;;;;5160542;27;20517;-71
2022/12/26 14:28:16;;;;;;;5.18;1.52;;;;;;;;;;5162946;27;20057;-71
2022/12/26 14:31:01;;;;;;;7.93;3.08;;;;;;;;;;5152472;27;20047;-68
2022/12/26 14:33:28;;;;;;;7.57;1.95;;;;;;;;;;5155740;27;20299;-72
2022/12/26 14:36:09;;;;;;;4.90;1.95;;;;;;;;;;5159683;27;20047;-70
2022/12/26 14:38:43;;;;;;;11.40;3.38;;;;;;;;;;5158325;27;20428;-69
2022/12/26 14:43:56;;;;;;;10.65;5.40;;;;;;;;;;5158513;27;20497;-69
2022/12/26 14:46:29;;;;;;;7.00;2.90;;;;;;;;;;5143535;27;20054;-69
2022/12/26 14:48:57;;;;;;;4.72;1.92;;;;;;;;;;5152520;27;20047;-68
2022/12/26 14:51:28;;;;;;;8.50;2.67;;;;;;;;;;5155335;27;20046;-68
2022/12/26 14:54:15;;;;;;;11.65;4.30;;;;;;;;;;5162297;27;20042;-71
2022/12/26 14:56:43;;;;;;;21.40;4.00;;;;;;;;;;5150564;27;20051;-70
2022/12/26 14:59:15;;;;;;;10.23;1.52;;;;;;;;;;5161728;27;20047;-71
2022/12/26 15:01:44;;;;;;;5.65;1.88;;;;;;;;;;5158615;27;20051;-70
2022/12/26 15:04:19;;;;;;;6.65;1.88;;;;;;;;;;5154539;27;20437;-70
2022/12/26 15:06:48;;;;;;;8.90;4.85;;;;;;;;;;5143027;27;20047;-71
2022/12/26 15:09:15;;;;;;;5.78;2.70;;;;;;;;;;5157286;27;20055;-69
2022/12/26 15:11:44;;;;;;;9.00;3.67;;;;;;;;;;5157476;27;20043;-69
2022/12/26 15:14:22;;;;;;;12.55;2.45;;;;;;;;;;5153412;27;20471;-71
2022/12/26 15:16:53;;;;;;;8.70;3.25;;;;;;;;;;5159247;27;20046;-70
2022/12/26 15:19:19;;;;;;;8.00;2.75;;;;;;;;;;5162277;27;20512;-69
2022/12/26 15:22:09;;;;;;;11.02;2.13;;;;;;;;;;5164056;27;20055;-70
2022/12/26 15:24:53;;;;;;;11.63;3.25;;;;;;;;;;5040785;28;20050;-69
2022/12/26 15:27:49;;;;;;;23.70;8.77;;;;;;;;;;5040011;28;20057;-69
2022/12/26 15:30:34;;;;;;;10.65;6.28;;;;;;;;;;5039563;28;20057;-68
2022/12/26 15:33:03;;;;;;;12.15;3.92;;;;;;;;;;5045751;28;20155;-69
2022/12/26 15:35:51;;;;;;;6.15;2.50;;;;;;;;;;5058824;28;20140;-69
2022/12/26 15:38:26;;;;;;;10.52;6.32;;;;;;;;;;5039412;28;20049;-68
2022/12/26 15:40:52;;;;;;;;;;;;;;;;;;5038049;28;20109;-70
2022/12/26 15:43:19;;;;;;;;;;;;;;;;;;5037002;28;47023;-68
2022/12/26 15:45:51;;;;;;;27.02;13.43;;;;;;;;;;5043656;28;43917;-69
2022/12/26 15:48:35;;;;;;;11.95;6.63;;;;;;;;;;5032741;28;20426;-71
2022/12/26 15:51:08;;;;;;;23.85;10.68;;;;;;;;;;5030795;28;20564;-69
2022/12/26 15:53:57;;;;;;;18.25;6.93;;;;;;;;;;5051654;28;20056;-71
2022/12/26 15:56:43;;;;;;;12.18;3.03;;;;;;;;;;5036982;28;20060;-70
2022/12/26 15:59:12;;;;;;;5.13;1.45;;;;;;;;;;5040721;28;20042;-70
2022/12/26 16:01:40;;;;;;;9.45;2.63;;;;;;;;;;5095159;27;20054;-71
2022/12/26 16:04:28;;;;;;;12.32;4.00;;;;;;;;;;5156680;27;20124;-70
2022/12/26 16:07:07;;;;;;;14.40;4.22;;;;;;;;;;5157776;27;20057;-68
2022/12/26 16:09:46;;;;;;;11.50;6.68;;;;;;;;;;5158787;27;20078;-71
2022/12/26 16:12:33;;;;;;;30.70;15.85;;;;;;;;;;5160969;27;20051;-68
2022/12/26 16:15:00;;;;;;;22.58;15.00;;;;;;;;;;5157622;27;20827;-71
2022/12/26 16:17:27;;;;;;;13.55;6.32;;;;;;;;;;5159152;27;20524;-69
2022/12/26 16:19:53;;;;;;;16.77;9.82;;;;;;;;;;5160631;27;20051;-71
2022/12/26 16:22:46;;;;;;;12.38;7.57;;;;;;;;;;5163049;27;20050;-69
2022/12/26 16:25:19;;;;;;;32.75;20.98;;;;;;;;;;5160021;27;20155;-69
2022/12/26 16:27:45;;;;;;;22.40;13.90;;;;;;;;;;5166051;27;20043;-72
2022/12/26 16:30:26;;;;;;;36.17;20.85;;;;;;;;;;5165865;27;20055;-71
2022/12/26 16:32:52;;;;;;;44.88;23.40;;;;;;;;;;5163308;27;20075;-71
2022/12/26 16:35:32;;;;;;;17.35;6.85;;;;;;;;;;5161327;27;20050;-71
2022/12/26 16:38:00;;;;;;;10.05;3.47;;;;;;;;;;5159610;27;20051;-70
2022/12/26 16:40:31;;;;;;;16.52;4.40;;;;;;;;;;5145477;27;20082;-71
2022/12/26 16:42:57;;;;;;;16.10;4.75;;;;;;;;;;5146422;27;20481;-71
2022/12/26 16:45:24;;;;;;;13.52;3.30;;;;;;;;;;5162937;27;20046;-72
2022/12/26 16:47:52;;;;;;;13.02;2.95;;;;;;;;;;5166485;27;20589;-71
2022/12/26 16:50:20;;;;;;;12.18;3.55;;;;;;;;;;5166331;27;20137;-70
2022/12/26 16:52:47;;;;;;;12.82;5.82;;;;;;;;;;5146646;27;20046;-72
2022/12/26 16:55:25;;;;;;;24.08;11.57;;;;;;;;;;5165088;27;20090;-71
2022/12/26 16:57:55;;;;;;;24.92;16.73;;;;;;;;;;5164950;27;20050;-71
2022/12/26 17:00:22;;;;;;;12.30;5.57;;;;;;;;;;5165484;27;20074;-71
2022/12/26 17:02:50;;;;;;;10.93;4.18;;;;;;;;;;5165919;27;20054;-71
2022/12/26 17:05:20;;;;;;;9.70;2.80;;;;;;;;;;5166501;27;20760;-71
2022/12/26 17:07:48;;;;;;;8.63;4.47;;;;;;;;;;5166432;27;20167;-72